createdAt,value
2018-06-13T00:00:08.716Z,81.90
2018-06-13T00:02:37.008Z,82.00
2018-06-13T00:05:05.276Z,81.90
2018-06-13T00:07:33.555Z,81.80
2018-06-13T00:10:01.811Z,81.70
2018-06-13T00:12:30.093Z,81.70
2018-06-13T00:14:58.366Z,81.70
2018-06-13T00:17:26.600Z,81.70
2018-06-13T00:19:54.865Z,81.60
2018-06-13T00:22:23.157Z,81.50
2018-06-13T00:24:51.388Z,81.50
2018-06-13T00:27:19.644Z,81.50
2018-06-13T00:29:47.968Z,81.40
2018-06-13T00:32:16.144Z,81.40
2018-06-13T00:34:44.372Z,81.40
2018-06-13T00:37:12.652Z,81.30
2018-06-13T00:39:40.885Z,81.30
2018-06-13T00:42:09.115Z,81.40
2018-06-13T00:44:37.354Z,81.20
2018-06-13T00:47:05.657Z,81.20
2018-06-13T00:49:33.862Z,81.20
2018-06-13T00:52:02.205Z,81.30
2018-06-13T00:54:30.453Z,81.40
2018-06-13T00:56:58.672Z,81.50
2018-06-13T00:59:26.908Z,81.50
2018-06-13T01:01:55.149Z,81.60
2018-06-13T01:04:23.421Z,81.80
2018-06-13T01:06:51.713Z,81.90
2018-06-13T01:09:19.959Z,82.20
2018-06-13T01:11:48.186Z,82.30
2018-06-13T01:14:16.420Z,82.70
2018-06-13T01:16:44.712Z,82.70
2018-06-13T01:19:12.988Z,82.80
2018-06-13T01:21:41.265Z,82.70
2018-06-13T01:24:09.501Z,82.70
2018-06-13T01:26:37.771Z,82.70
2018-06-13T01:29:06.057Z,82.90
2018-06-13T01:31:34.300Z,83.00
2018-06-13T01:34:02.552Z,83.10
2018-06-13T01:36:30.781Z,83.10
2018-06-13T01:38:59.064Z,83.20
2018-06-13T01:41:27.275Z,83.30
2018-06-13T01:43:55.509Z,83.50
2018-06-13T01:46:23.725Z,83.50
2018-06-13T01:48:51.980Z,83.70
2018-06-13T01:51:20.228Z,83.70
2018-06-13T01:53:48.465Z,83.70
2018-06-13T01:56:16.942Z,83.70
2018-06-13T01:58:45.193Z,83.70
2018-06-13T02:01:13.444Z,83.50
2018-06-13T02:03:41.876Z,83.50
2018-06-13T02:06:10.200Z,83.40
2018-06-13T02:08:38.516Z,83.50
2018-06-13T02:11:06.877Z,83.30
2018-06-13T02:13:35.190Z,83.40
2018-06-13T02:16:03.492Z,83.40
2018-06-13T02:20:59.858Z,83.40
2018-06-13T02:23:28.236Z,83.30
2018-06-13T02:25:56.579Z,83.30
2018-06-13T02:28:24.889Z,83.20
2018-06-13T02:30:53.285Z,83.10
2018-06-13T02:33:21.633Z,83.10
2018-06-13T02:38:18.101Z,83.40
2018-06-13T02:40:46.413Z,83.30
2018-06-13T02:43:14.708Z,83.10
2018-06-13T02:45:43.034Z,83.10
2018-06-13T02:48:11.419Z,83.00
2018-06-13T02:50:39.761Z,83.00
2018-06-13T02:55:36.103Z,82.70
2018-06-13T02:58:04.523Z,82.80
2018-06-13T03:00:32.840Z,82.90
2018-06-13T03:03:01.175Z,82.70
2018-06-13T03:05:29.457Z,82.60
2018-06-13T03:07:57.789Z,83.00
2018-06-13T03:10:26.173Z,82.20
2018-06-13T03:12:54.523Z,82.10
2018-06-13T03:15:22.804Z,81.90
2018-06-13T03:17:51.144Z,81.80
2018-06-13T03:20:19.471Z,81.80
2018-06-13T03:22:47.764Z,81.70
2018-06-13T03:25:16.054Z,81.60
2018-06-13T03:30:12.488Z,81.20
2018-06-13T03:32:40.768Z,81.00
2018-06-13T03:35:09.083Z,81.00
2018-06-13T03:37:37.383Z,80.80
2018-06-13T03:40:05.743Z,80.80
2018-06-13T03:42:34.008Z,80.80
2018-06-13T03:45:02.336Z,80.70
2018-06-13T03:47:30.627Z,80.70
2018-06-13T03:49:59.040Z,80.80
2018-06-13T03:52:27.333Z,80.80
2018-06-13T03:54:55.640Z,80.80
2018-06-13T03:57:23.952Z,80.70
2018-06-13T03:59:52.292Z,80.60
2018-06-13T04:02:20.596Z,80.60
2018-06-13T04:04:48.880Z,80.60
2018-06-13T04:07:17.317Z,80.40
2018-06-13T04:09:45.611Z,80.30
2018-06-13T04:12:13.962Z,80.00
2018-06-13T04:14:42.280Z,80.60
2018-06-13T04:17:10.577Z,79.80
2018-06-13T04:19:38.908Z,79.70
2018-06-13T04:22:07.222Z,79.70
2018-06-13T04:27:04.532Z,79.50
2018-06-13T04:29:32.866Z,79.40
2018-06-13T04:32:01.197Z,79.30
2018-06-13T04:34:29.512Z,79.00
2018-06-13T04:36:57.816Z,79.00
2018-06-13T04:39:26.109Z,78.70
2018-06-13T04:41:54.494Z,78.40
2018-06-13T04:44:22.764Z,78.70
2018-06-13T04:46:51.122Z,78.40
2018-06-13T04:49:19.381Z,79.20
2018-06-13T04:51:47.697Z,78.30
2018-06-13T04:54:15.976Z,78.10
2018-06-13T04:56:44.292Z,77.90
2018-06-13T04:59:12.567Z,77.80
2018-06-13T05:01:40.860Z,77.70
2018-06-13T05:04:09.223Z,78.40
2018-06-13T05:06:37.558Z,77.70
2018-06-13T05:09:07.478Z,77.60
2018-06-13T05:11:35.757Z,77.50
2018-06-13T05:14:04.113Z,77.20
2018-06-13T05:16:32.398Z,77.20
2018-06-13T05:19:00.715Z,77.20
2018-06-13T05:21:29.019Z,76.90
2018-06-13T05:23:57.371Z,76.80
2018-06-13T05:26:25.689Z,76.60
2018-06-13T05:28:54.068Z,76.50
2018-06-13T05:31:22.372Z,76.30
2018-06-13T05:33:50.668Z,76.00
2018-06-13T05:36:18.988Z,75.80
2018-06-13T05:38:47.318Z,75.40
2018-06-13T05:41:15.607Z,74.90
2018-06-13T05:43:43.911Z,74.70
2018-06-13T05:46:12.219Z,74.50
2018-06-13T05:48:40.528Z,74.30
2018-06-13T05:51:08.865Z,74.30
2018-06-13T05:53:37.162Z,73.60
2018-06-13T05:56:05.476Z,73.60
2018-06-13T05:58:33.763Z,73.60
2018-06-13T06:01:02.068Z,73.50
2018-06-13T06:03:30.380Z,73.20
2018-06-13T06:05:58.663Z,73.20
2018-06-13T06:08:26.969Z,72.90
2018-06-13T06:10:55.249Z,72.80
2018-06-13T06:15:51.600Z,72.10
2018-06-13T06:18:19.996Z,72.10
2018-06-13T06:20:48.312Z,72.10
2018-06-13T06:23:16.642Z,71.70
2018-06-13T06:25:44.943Z,71.40
2018-06-13T06:28:13.348Z,71.50
2018-06-13T06:30:41.676Z,71.10
2018-06-13T06:33:10.029Z,71.10
2018-06-13T06:35:38.353Z,70.90
2018-06-13T06:38:06.780Z,70.60
2018-06-13T06:40:35.116Z,70.60
2018-06-13T06:43:03.432Z,70.10
2018-06-13T06:45:31.753Z,70.10
2018-06-13T06:48:00.067Z,69.60
2018-06-13T06:50:28.509Z,69.80
2018-06-13T06:52:56.856Z,70.10
2018-06-13T06:55:25.305Z,70.00
2018-06-13T06:57:53.539Z,69.40
2018-06-13T07:00:22.375Z,68.90
2018-06-13T07:02:50.684Z,67.90
2018-06-13T07:05:19.004Z,66.90
2018-06-13T07:07:47.621Z,67.00
2018-06-13T07:10:16.020Z,66.20
2018-06-13T07:12:44.371Z,65.60
2018-06-13T07:15:12.724Z,65.20
2018-06-13T07:17:41.056Z,64.20
2018-06-13T07:20:09.366Z,63.50
2018-06-13T07:22:37.712Z,63.10
2018-06-13T07:25:06.112Z,62.80
2018-06-13T07:27:34.451Z,62.70
2018-06-13T07:30:03.294Z,61.80
2018-06-13T07:32:31.610Z,61.10
2018-06-13T07:34:59.953Z,61.10
2018-06-13T07:37:28.355Z,60.40
2018-06-13T07:39:56.672Z,59.90
2018-06-13T07:42:25.025Z,60.20
2018-06-13T07:44:53.354Z,60.60
2018-06-13T07:47:21.697Z,59.90
2018-06-13T07:49:49.988Z,59.70
2018-06-13T07:52:18.459Z,59.40
2018-06-13T07:54:46.810Z,59.10
2018-06-13T07:57:15.144Z,58.60
2018-06-13T07:59:43.439Z,58.50
2018-06-13T08:02:11.803Z,58.70
2018-06-13T08:04:40.115Z,59.10
2018-06-13T08:07:08.546Z,59.00
2018-06-13T08:09:36.840Z,58.90
2018-06-13T08:12:05.336Z,58.60
2018-06-13T08:14:33.720Z,57.80
2018-06-13T08:17:02.119Z,57.80
2018-06-13T08:19:30.712Z,57.40
2018-06-13T08:24:27.209Z,57.10
2018-06-13T08:26:55.588Z,57.20
2018-06-13T08:29:24.085Z,57.40
2018-06-13T08:31:52.465Z,56.90
2018-06-13T08:34:20.879Z,56.50
2018-06-13T08:36:49.224Z,56.30
2018-06-13T08:39:17.795Z,56.00
2018-06-13T08:41:46.164Z,55.90
2018-06-13T08:44:14.640Z,56.60
2018-06-13T08:46:43.538Z,56.00
2018-06-13T08:49:11.870Z,56.40
2018-06-13T08:51:40.172Z,55.80
2018-06-13T08:54:08.516Z,55.90
2018-06-13T08:56:36.788Z,55.00
2018-06-13T08:59:05.195Z,54.80
2018-06-13T09:01:33.571Z,53.40
2018-06-13T09:04:01.986Z,53.40
2018-06-13T09:06:30.400Z,51.70
2018-06-13T09:08:58.841Z,50.80
2018-06-13T09:11:27.133Z,50.40
2018-06-13T09:13:55.446Z,50.10
2018-06-13T09:16:23.807Z,50.90
2018-06-13T09:18:52.109Z,51.40
2018-06-13T09:21:20.443Z,51.50
2018-06-13T09:23:48.764Z,51.60
2018-06-13T09:26:17.147Z,51.10
2018-06-13T09:28:45.492Z,50.50
2018-06-13T09:31:13.945Z,50.10
2018-06-13T09:33:42.240Z,48.30
2018-06-13T09:36:10.536Z,47.80
2018-06-13T09:38:38.882Z,47.00
2018-06-13T09:41:07.325Z,45.90
2018-06-13T09:43:35.689Z,46.30
2018-06-13T09:46:11.860Z,46.10
2018-06-13T09:48:32.424Z,45.50
2018-06-13T09:51:00.756Z,44.90
2018-06-13T09:53:29.435Z,45.30
2018-06-13T09:58:25.892Z,46.40
2018-06-13T10:00:59.571Z,46.00
2018-06-13T10:03:27.872Z,46.10
2018-06-13T10:05:56.229Z,46.20
2018-06-13T10:08:24.562Z,46.30
2018-06-13T10:10:54.752Z,46.60
2018-06-13T10:13:23.104Z,46.90
2018-06-13T10:15:51.540Z,46.60
2018-06-13T10:18:20.868Z,46.30
2018-06-13T10:20:49.204Z,46.10
2018-06-13T10:23:17.667Z,46.30
2018-06-13T10:25:45.990Z,46.60
2018-06-13T10:28:14.821Z,46.90
2018-06-13T10:30:44.340Z,46.90
2018-06-13T10:33:12.700Z,47.10
2018-06-13T10:35:40.996Z,46.90
2018-06-13T10:38:09.913Z,46.90
2018-06-13T10:40:38.300Z,46.00
2018-06-13T10:43:06.697Z,45.90
2018-06-13T10:45:35.025Z,46.00
2018-06-13T10:48:03.351Z,45.80
2018-06-13T10:50:31.705Z,45.70
2018-06-13T10:53:00.016Z,46.00
2018-06-13T10:55:28.377Z,46.10
2018-06-13T11:00:24.664Z,46.90
2018-06-13T11:02:53.028Z,46.70
2018-06-13T11:05:21.390Z,46.70
2018-06-13T11:07:49.732Z,48.00
2018-06-13T11:10:18.095Z,47.90
2018-06-13T11:12:46.387Z,48.40
2018-06-13T11:15:14.735Z,48.60
2018-06-13T11:17:43.044Z,48.90
2018-06-13T11:20:11.367Z,49.50
2018-06-13T11:22:40.096Z,50.00
2018-06-13T11:25:08.400Z,50.40
2018-06-13T11:27:36.732Z,50.80
2018-06-13T11:30:05.670Z,50.90
2018-06-13T11:32:34.048Z,50.90
2018-06-13T11:35:06.640Z,50.70
2018-06-13T11:37:36.721Z,50.10
2018-06-13T11:40:05.200Z,49.60
2018-06-13T11:42:33.503Z,48.90
2018-06-13T11:45:01.829Z,48.30
2018-06-13T11:47:30.126Z,47.70
2018-06-13T11:49:58.500Z,47.50
2018-06-13T11:52:26.865Z,47.80
2018-06-13T11:54:55.172Z,48.30
2018-06-13T11:57:23.521Z,48.50
2018-06-13T11:59:51.849Z,48.80
2018-06-13T12:02:20.152Z,48.70
2018-06-13T12:04:48.492Z,48.90
2018-06-13T12:07:16.949Z,49.30
2018-06-13T12:09:45.248Z,50.00
2018-06-13T12:12:13.603Z,50.70
2018-06-13T12:14:41.893Z,51.10
2018-06-13T12:17:11.616Z,51.60
2018-06-13T12:19:39.925Z,51.90
2018-06-13T12:22:08.275Z,52.00
2018-06-13T12:24:36.580Z,51.80
2018-06-13T12:27:05.036Z,51.90
2018-06-13T12:29:33.303Z,52.30
2018-06-13T12:32:01.670Z,52.50
2018-06-13T12:34:29.972Z,52.20
2018-06-13T12:36:59.348Z,52.40
2018-06-13T12:39:27.684Z,52.40
2018-06-13T12:41:56.006Z,52.50
2018-06-13T12:44:24.304Z,52.40
2018-06-13T12:46:52.633Z,52.40
2018-06-13T12:49:20.940Z,52.20
2018-06-13T12:51:49.255Z,52.00
2018-06-13T12:54:17.532Z,52.10
2018-06-13T12:56:45.812Z,51.40
2018-06-13T12:59:14.128Z,51.30
2018-06-13T13:01:42.440Z,51.60
2018-06-13T13:04:10.740Z,50.90
2018-06-13T13:06:39.076Z,51.80
2018-06-13T13:09:09.575Z,52.00
2018-06-13T13:11:37.925Z,52.20
2018-06-13T13:14:06.240Z,51.90
2018-06-13T13:16:34.551Z,52.30
2018-06-13T13:19:02.856Z,52.70
2018-06-13T13:21:31.213Z,53.10
2018-06-13T13:23:59.551Z,53.30
2018-06-13T13:26:27.932Z,53.60
2018-06-13T13:28:56.290Z,53.50
2018-06-13T13:31:24.631Z,54.00
2018-06-13T13:33:53.805Z,53.20
2018-06-13T13:36:22.160Z,52.90
2018-06-13T13:38:50.494Z,52.70
2018-06-13T13:41:18.776Z,52.30
2018-06-13T13:43:47.092Z,52.30
2018-06-13T13:46:15.413Z,52.00
2018-06-13T13:48:43.771Z,52.00
2018-06-13T13:51:12.325Z,51.90
2018-06-13T13:53:40.652Z,51.80
2018-06-13T13:56:09.213Z,51.60
2018-06-13T13:58:37.907Z,51.40
2018-06-13T14:01:06.376Z,51.50
2018-06-13T14:03:34.764Z,51.50
2018-06-13T14:06:03.083Z,51.30
2018-06-13T14:08:31.416Z,51.50
2018-06-13T14:10:59.828Z,51.30
2018-06-13T14:13:28.159Z,51.10
2018-06-13T14:15:56.439Z,50.20
2018-06-13T14:18:24.764Z,50.20
2018-06-13T14:20:53.169Z,50.30
2018-06-13T14:23:21.711Z,50.30
2018-06-13T14:25:50.042Z,50.00
2018-06-13T14:28:18.368Z,49.80
2018-06-13T14:30:46.781Z,50.20
2018-06-13T14:33:15.097Z,50.30
2018-06-13T14:35:43.472Z,50.20
2018-06-13T14:38:11.816Z,50.00
2018-06-13T14:40:40.190Z,49.90
2018-06-13T14:43:08.524Z,49.50
2018-06-13T14:45:36.851Z,49.50
2018-06-13T14:48:05.180Z,49.00
2018-06-13T14:50:33.610Z,48.80
2018-06-13T14:55:31.749Z,49.40
2018-06-13T14:58:00.056Z,48.70
2018-06-13T15:00:28.376Z,48.90
2018-06-13T15:02:56.718Z,49.10
2018-06-13T15:05:25.084Z,49.50
2018-06-13T15:10:21.498Z,49.40
2018-06-13T15:12:49.900Z,49.70
2018-06-13T15:15:18.379Z,50.00
2018-06-13T15:17:46.792Z,50.10
2018-06-13T15:20:15.129Z,50.20
2018-06-13T15:22:43.443Z,49.80
2018-06-13T15:25:11.818Z,49.40
2018-06-13T15:27:40.397Z,49.20
2018-06-13T15:30:08.778Z,49.20
2018-06-13T15:32:37.108Z,48.90
2018-06-13T15:35:05.547Z,49.10
2018-06-13T15:37:33.930Z,49.50
2018-06-13T15:40:02.214Z,49.70
2018-06-13T15:42:30.621Z,49.40
2018-06-13T15:44:58.972Z,49.20
2018-06-13T15:47:27.298Z,48.90
2018-06-13T15:49:55.688Z,49.10
2018-06-13T15:52:24.008Z,49.30
2018-06-13T15:54:52.333Z,49.50
2018-06-13T15:57:20.638Z,49.80
2018-06-13T15:59:49.066Z,50.00
2018-06-13T16:02:17.388Z,50.60
2018-06-13T16:04:45.815Z,50.60
2018-06-13T16:07:14.158Z,50.90
2018-06-13T16:09:42.547Z,51.20
2018-06-13T16:12:10.896Z,51.60
2018-06-13T16:14:39.236Z,51.70
2018-06-13T16:17:07.580Z,51.60
2018-06-13T16:19:35.872Z,51.60
2018-06-13T16:22:04.295Z,51.80
2018-06-13T16:24:33.037Z,51.90
2018-06-13T16:27:01.388Z,51.80
2018-06-13T16:29:29.715Z,51.80
2018-06-13T16:31:58.085Z,52.10
2018-06-13T16:34:26.572Z,52.30
2018-06-13T16:36:54.903Z,52.50
2018-06-13T16:39:23.195Z,52.70
2018-06-13T16:41:51.734Z,52.70
2018-06-13T16:44:20.004Z,52.80
2018-06-13T16:46:48.477Z,52.70
2018-06-13T16:49:16.810Z,52.60
2018-06-13T16:51:53.284Z,52.80
2018-06-13T16:54:32.705Z,52.90
2018-06-13T16:57:01.008Z,52.80
2018-06-13T16:59:29.388Z,53.40
2018-06-13T17:01:57.849Z,53.70
2018-06-13T17:04:26.203Z,54.10
2018-06-13T17:06:54.607Z,54.30
2018-06-13T17:09:22.980Z,54.50
2018-06-13T17:11:51.272Z,54.60
2018-06-13T17:14:19.580Z,54.60
2018-06-13T17:16:47.923Z,54.70
2018-06-13T17:19:16.200Z,54.60
2018-06-13T17:21:44.516Z,54.70
2018-06-13T17:24:12.796Z,54.60
2018-06-13T17:26:41.722Z,54.60
2018-06-13T17:29:10.060Z,54.90
2018-06-13T17:31:38.376Z,55.10
2018-06-13T17:34:06.761Z,55.30
2018-06-13T17:36:35.053Z,55.20
2018-06-13T17:39:03.521Z,55.40
2018-06-13T17:41:31.822Z,55.40
2018-06-13T17:44:00.123Z,55.60
2018-06-13T17:46:28.507Z,55.80
2018-06-13T17:48:56.813Z,55.90
2018-06-13T17:51:25.102Z,55.90
2018-06-13T17:53:53.470Z,56.10
2018-06-13T17:56:21.796Z,56.20
2018-06-13T17:58:50.124Z,56.30
2018-06-13T18:01:18.541Z,56.50
2018-06-13T18:03:46.878Z,56.70
2018-06-13T18:06:15.204Z,57.00
2018-06-13T18:08:43.552Z,57.00
2018-06-13T18:13:40.015Z,57.70
2018-06-13T18:16:08.340Z,57.90
2018-06-13T18:18:36.719Z,58.10
2018-06-13T18:21:05.046Z,58.50
2018-06-13T18:23:33.438Z,58.90
2018-06-13T18:26:01.780Z,59.10
2018-06-13T18:28:30.093Z,59.50
2018-06-13T18:30:58.532Z,59.70
2018-06-13T18:33:26.824Z,59.80
2018-06-13T18:35:55.188Z,60.00
2018-06-13T18:38:23.521Z,60.30
2018-06-13T18:40:51.903Z,60.40
2018-06-13T18:43:20.207Z,60.60
2018-06-13T18:45:48.629Z,60.90
2018-06-13T18:48:16.956Z,61.20
2018-06-13T18:50:45.259Z,61.30
2018-06-13T18:53:13.592Z,61.50
2018-06-13T18:55:42.025Z,61.70
2018-06-13T18:58:10.316Z,61.80
2018-06-13T19:00:38.669Z,61.90
2018-06-13T19:03:07.047Z,62.00
2018-06-13T19:08:03.531Z,62.40
2018-06-13T19:10:31.837Z,62.30
2018-06-13T19:13:00.144Z,62.50
2018-06-13T19:15:28.432Z,62.40
2018-06-13T19:17:56.755Z,62.60
2018-06-13T19:20:25.075Z,62.80
2018-06-13T19:22:53.500Z,63.00
2018-06-13T19:25:22.646Z,63.40
2018-06-13T19:27:51.020Z,63.60
2018-06-13T19:30:19.396Z,63.80
2018-06-13T19:32:47.757Z,64.10
2018-06-13T19:35:16.172Z,64.10
2018-06-13T19:37:44.536Z,64.40
2018-06-13T19:40:12.893Z,64.50
2018-06-13T19:42:41.212Z,64.50
2018-06-13T19:45:09.532Z,64.80
2018-06-13T19:47:43.133Z,64.30
2018-06-13T19:50:11.432Z,64.00
2018-06-13T19:52:45.233Z,63.80
2018-06-13T19:55:18.816Z,63.70
2018-06-13T19:57:47.171Z,63.80
2018-06-13T20:00:15.506Z,63.80
2018-06-13T20:02:49.092Z,63.90
2018-06-13T20:05:22.852Z,63.80
2018-06-13T20:07:51.216Z,63.70
2018-06-13T20:10:19.549Z,63.80
2018-06-13T20:12:53.124Z,63.90
2018-06-13T20:15:26.849Z,63.90
2018-06-13T20:18:00.609Z,63.90
2018-06-13T20:20:28.944Z,64.00
2018-06-13T20:22:57.304Z,64.00
2018-06-13T20:25:31.023Z,64.20
2018-06-13T20:28:04.521Z,64.30
2018-06-13T20:30:38.241Z,64.20
2018-06-13T20:33:06.591Z,64.10
2018-06-13T20:35:35.034Z,64.30
2018-06-13T20:38:03.347Z,64.10
2018-06-13T20:40:31.659Z,64.10
2018-06-13T20:45:28.060Z,64.10
2018-06-13T20:47:56.386Z,63.90
2018-06-13T20:50:24.800Z,63.80
2018-06-13T20:52:53.124Z,63.80
2018-06-13T20:55:21.485Z,64.30
2018-06-13T20:57:49.935Z,63.50
2018-06-13T21:00:18.284Z,63.30
2018-06-13T21:02:46.619Z,63.40
2018-06-13T21:05:14.964Z,63.30
2018-06-13T21:07:43.344Z,63.20
2018-06-13T21:10:11.664Z,63.30
2018-06-13T21:12:39.972Z,63.40
2018-06-13T21:15:08.345Z,63.50
2018-06-13T21:17:36.756Z,64.30
2018-06-13T21:20:05.072Z,63.60
2018-06-13T21:22:33.408Z,63.60
2018-06-13T21:25:01.729Z,63.60
2018-06-13T21:27:30.035Z,63.80
2018-06-13T21:29:58.359Z,63.60
2018-06-13T21:32:26.741Z,63.80
2018-06-13T21:34:55.228Z,63.80
2018-06-13T21:37:24.175Z,64.00
2018-06-13T21:39:52.740Z,64.20
2018-06-13T21:44:49.313Z,64.50
2018-06-13T21:47:17.891Z,64.60
2018-06-13T21:49:46.200Z,64.60
2018-06-13T21:52:14.554Z,64.60
2018-06-13T21:54:42.968Z,64.60
2018-06-13T21:57:11.287Z,64.60
2018-06-13T21:59:39.608Z,64.60
2018-06-13T22:02:08.000Z,65.10
2018-06-13T22:07:04.444Z,64.90
2018-06-13T22:09:32.752Z,65.10
2018-06-13T22:12:01.093Z,65.20
2018-06-13T22:14:29.411Z,65.00
2018-06-13T22:16:57.736Z,65.00
2018-06-13T22:19:26.028Z,65.00
2018-06-13T22:21:54.354Z,65.30
2018-06-13T22:24:22.759Z,65.50
2018-06-13T22:26:51.079Z,65.40
2018-06-13T22:29:19.415Z,65.50
2018-06-13T22:31:47.753Z,65.60
2018-06-13T22:34:16.088Z,65.70
2018-06-13T22:36:44.423Z,66.00
2018-06-13T22:39:13.259Z,65.90
2018-06-13T22:41:42.233Z,66.00
2018-06-13T22:44:10.533Z,66.00
2018-06-13T22:46:38.859Z,66.20
2018-06-13T22:49:07.244Z,66.30
2018-06-13T22:51:35.751Z,66.30
2018-06-13T22:54:04.077Z,66.30
2018-06-13T22:56:32.432Z,66.50
2018-06-13T22:59:00.817Z,66.60
2018-06-13T23:01:29.193Z,66.80
2018-06-13T23:03:57.745Z,67.00
2018-06-13T23:06:26.060Z,67.30
2018-06-13T23:08:54.424Z,67.50
2018-06-13T23:11:22.736Z,67.80
2018-06-13T23:13:51.060Z,68.00
2018-06-13T23:16:19.382Z,68.10
2018-06-13T23:18:47.660Z,68.30
2018-06-13T23:21:16.005Z,68.30
2018-06-13T23:35:11.893Z,68.70
2018-06-13T23:37:40.236Z,68.70
2018-06-13T23:42:36.624Z,68.90
2018-06-13T23:45:05.044Z,68.90
2018-06-13T23:50:01.390Z,69.20
2018-06-13T23:52:29.744Z,69.30
2018-06-13T23:54:58.055Z,69.40
2018-06-13T23:57:26.372Z,69.50
2018-06-13T23:59:54.676Z,69.50
